sensor_id;sensor_type;location;lat;lon;timestamp;P1;durP1;ratioP1;P2;durP2;ratioP2
32407;SDS011;18869;55.970;37.502;2023-07-20T00:00:45;2.80;;;2.37;;
32407;SDS011;18869;55.970;37.502;2023-07-20T00:03:14;6.00;;;2.43;;
32407;SDS011;18869;55.970;37.502;2023-07-20T00:05:45;3.00;;;1.93;;
32407;SDS011;18869;55.970;37.502;2023-07-20T00:08:12;2.43;;;2.23;;
32407;SDS011;18869;55.970;37.502;2023-07-20T00:10:40;6.87;;;3.30;;
32407;SDS011;18869;55.970;37.502;2023-07-20T00:13:07;2.67;;;2.47;;
32407;SDS011;18869;55.970;37.502;2023-07-20T00:15:38;3.63;;;2.90;;
32407;SDS011;18869;55.970;37.502;2023-07-20T00:18:06;2.53;;;2.33;;
32407;SDS011;18869;55.970;37.502;2023-07-20T00:20:33;5.97;;;2.00;;
32407;SDS011;18869;55.970;37.502;2023-07-20T00:23:01;4.17;;;2.10;;
32407;SDS011;18869;55.970;37.502;2023-07-20T00:25:28;2.30;;;2.10;;
32407;SDS011;18869;55.970;37.502;2023-07-20T00:27:55;2.50;;;2.03;;
32407;SDS011;18869;55.970;37.502;2023-07-20T00:30:23;5.37;;;2.67;;
32407;SDS011;18869;55.970;37.502;2023-07-20T00:32:50;3.10;;;2.33;;
32407;SDS011;18869;55.970;37.502;2023-07-20T00:35:17;2.37;;;2.17;;
32407;SDS011;18869;55.970;37.502;2023-07-20T00:37:44;3.10;;;2.30;;
32407;SDS011;18869;55.970;37.502;2023-07-20T00:40:11;2.70;;;2.50;;
32407;SDS011;18869;55.970;37.502;2023-07-20T00:42:39;5.33;;;2.23;;
32407;SDS011;18869;55.970;37.502;2023-07-20T00:45:06;2.90;;;2.23;;
32407;SDS011;18869;55.970;37.502;2023-07-20T00:47:34;3.10;;;2.30;;
32407;SDS011;18869;55.970;37.502;2023-07-20T00:50:01;2.50;;;2.30;;
32407;SDS011;18869;55.970;37.502;2023-07-20T00:52:31;3.10;;;2.00;;
32407;SDS011;18869;55.970;37.502;2023-07-20T00:55:00;2.17;;;2.00;;
32407;SDS011;18869;55.970;37.502;2023-07-20T00:57:31;2.33;;;2.17;;
32407;SDS011;18869;55.970;37.502;2023-07-20T00:59:59;4.90;;;2.30;;
32407;SDS011;18869;55.970;37.502;2023-07-20T01:02:26;2.33;;;2.17;;
32407;SDS011;18869;55.970;37.502;2023-07-20T01:04:53;2.37;;;2.10;;
32407;SDS011;18869;55.970;37.502;2023-07-20T01:07:23;7.77;;;2.43;;
32407;SDS011;18869;55.970;37.502;2023-07-20T01:09:52;2.40;;;2.07;;
32407;SDS011;18869;55.970;37.502;2023-07-20T01:12:30;3.00;;;2.10;;
32407;SDS011;18869;55.970;37.502;2023-07-20T01:15:02;2.47;;;2.27;;
32407;SDS011;18869;55.970;37.502;2023-07-20T01:17:30;3.60;;;2.27;;
32407;SDS011;18869;55.970;37.502;2023-07-20T01:19:57;5.20;;;2.20;;
32407;SDS011;18869;55.970;37.502;2023-07-20T01:22:32;6.63;;;2.07;;
32407;SDS011;18869;55.970;37.502;2023-07-20T01:25:21;3.10;;;2.07;;
32407;SDS011;18869;55.970;37.502;2023-07-20T01:27:58;2.17;;;2.07;;
32407;SDS011;18869;55.970;37.502;2023-07-20T01:30:55;2.40;;;2.23;;
32407;SDS011;18869;55.970;37.502;2023-07-20T01:33:24;3.37;;;2.20;;
32407;SDS011;18869;55.970;37.502;2023-07-20T01:35:54;3.93;;;2.50;;
32407;SDS011;18869;55.970;37.502;2023-07-20T01:38:22;2.40;;;2.30;;
32407;SDS011;18869;55.970;37.502;2023-07-20T01:40:50;3.37;;;2.40;;
32407;SDS011;18869;55.970;37.502;2023-07-20T01:43:18;2.87;;;2.67;;
32407;SDS011;18869;55.970;37.502;2023-07-20T01:45:45;2.83;;;2.60;;
32407;SDS011;18869;55.970;37.502;2023-07-20T01:48:13;2.10;;;2.00;;
32407;SDS011;18869;55.970;37.502;2023-07-20T01:50:42;2.23;;;2.03;;
32407;SDS011;18869;55.970;37.502;2023-07-20T01:53:09;5.00;;;2.70;;
32407;SDS011;18869;55.970;37.502;2023-07-20T01:55:36;2.63;;;2.40;;
32407;SDS011;18869;55.970;37.502;2023-07-20T01:58:04;2.93;;;2.40;;
32407;SDS011;18869;55.970;37.502;2023-07-20T02:00:31;2.60;;;2.00;;
32407;SDS011;18869;55.970;37.502;2023-07-20T02:02:59;2.67;;;2.37;;
32407;SDS011;18869;55.970;37.502;2023-07-20T02:05:25;3.37;;;2.20;;
32407;SDS011;18869;55.970;37.502;2023-07-20T02:07:53;2.40;;;2.20;;
32407;SDS011;18869;55.970;37.502;2023-07-20T02:10:21;6.03;;;2.37;;
32407;SDS011;18869;55.970;37.502;2023-07-20T02:12:48;2.07;;;1.87;;
32407;SDS011;18869;55.970;37.502;2023-07-20T02:15:16;3.47;;;2.50;;
32407;SDS011;18869;55.970;37.502;2023-07-20T02:17:45;2.30;;;2.20;;
32407;SDS011;18869;55.970;37.502;2023-07-20T02:20:12;2.83;;;2.17;;
32407;SDS011;18869;55.970;37.502;2023-07-20T02:22:39;5.47;;;2.80;;
32407;SDS011;18869;55.970;37.502;2023-07-20T02:25:07;2.30;;;2.10;;
32407;SDS011;18869;55.970;37.502;2023-07-20T02:27:35;4.40;;;1.77;;
32407;SDS011;18869;55.970;37.502;2023-07-20T02:30:03;2.57;;;2.20;;
32407;SDS011;18869;55.970;37.502;2023-07-20T02:32:37;3.23;;;2.00;;
32407;SDS011;18869;55.970;37.502;2023-07-20T02:35:04;2.20;;;2.10;;
32407;SDS011;18869;55.970;37.502;2023-07-20T02:37:33;2.93;;;2.00;;
32407;SDS011;18869;55.970;37.502;2023-07-20T02:40:00;2.20;;;2.00;;
32407;SDS011;18869;55.970;37.502;2023-07-20T02:42:32;2.43;;;2.30;;
32407;SDS011;18869;55.970;37.502;2023-07-20T02:45:01;2.57;;;2.13;;
32407;SDS011;18869;55.970;37.502;2023-07-20T02:47:34;3.73;;;2.07;;
32407;SDS011;18869;55.970;37.502;2023-07-20T02:50:02;2.53;;;2.40;;
32407;SDS011;18869;55.970;37.502;2023-07-20T02:52:32;2.20;;;2.00;;
32407;SDS011;18869;55.970;37.502;2023-07-20T02:54:59;2.70;;;2.20;;
32407;SDS011;18869;55.970;37.502;2023-07-20T02:57:27;6.97;;;2.10;;
32407;SDS011;18869;55.970;37.502;2023-07-20T02:59:55;3.10;;;2.13;;
32407;SDS011;18869;55.970;37.502;2023-07-20T03:02:22;2.13;;;2.00;;
32407;SDS011;18869;55.970;37.502;2023-07-20T03:04:49;2.87;;;2.03;;
32407;SDS011;18869;55.970;37.502;2023-07-20T03:07:16;6.17;;;2.07;;
32407;SDS011;18869;55.970;37.502;2023-07-20T03:09:44;2.57;;;1.63;;
32407;SDS011;18869;55.970;37.502;2023-07-20T03:12:11;4.87;;;2.20;;
32407;SDS011;18869;55.970;37.502;2023-07-20T03:14:38;2.40;;;1.90;;
32407;SDS011;18869;55.970;37.502;2023-07-20T03:17:06;2.97;;;2.37;;
32407;SDS011;18869;55.970;37.502;2023-07-20T03:19:34;2.33;;;1.87;;
32407;SDS011;18869;55.970;37.502;2023-07-20T03:22:01;2.10;;;1.93;;
32407;SDS011;18869;55.970;37.502;2023-07-20T03:24:28;1.97;;;1.77;;
32407;SDS011;18869;55.970;37.502;2023-07-20T03:26:55;1.70;;;1.60;;
32407;SDS011;18869;55.970;37.502;2023-07-20T03:29:22;2.73;;;2.00;;
32407;SDS011;18869;55.970;37.502;2023-07-20T03:31:49;1.93;;;1.80;;
32407;SDS011;18869;55.970;37.502;2023-07-20T03:34:18;1.80;;;1.70;;
32407;SDS011;18869;55.970;37.502;2023-07-20T03:36:45;2.30;;;1.90;;
32407;SDS011;18869;55.970;37.502;2023-07-20T03:39:12;2.00;;;1.80;;
32407;SDS011;18869;55.970;37.502;2023-07-20T03:41:39;2.30;;;1.93;;
32407;SDS011;18869;55.970;37.502;2023-07-20T03:44:07;3.80;;;1.97;;
32407;SDS011;18869;55.970;37.502;2023-07-20T03:46:34;3.67;;;2.00;;
32407;SDS011;18869;55.970;37.502;2023-07-20T03:49:01;3.53;;;1.40;;
32407;SDS011;18869;55.970;37.502;2023-07-20T03:51:30;2.73;;;1.90;;
32407;SDS011;18869;55.970;37.502;2023-07-20T03:53:57;2.30;;;1.50;;
32407;SDS011;18869;55.970;37.502;2023-07-20T03:56:24;3.40;;;1.80;;
32407;SDS011;18869;55.970;37.502;2023-07-20T03:58:52;3.10;;;1.80;;
32407;SDS011;18869;55.970;37.502;2023-07-20T04:01:19;1.73;;;1.63;;
32407;SDS011;18869;55.970;37.502;2023-07-20T04:03:47;2.70;;;1.87;;
32407;SDS011;18869;55.970;37.502;2023-07-20T04:06:14;3.00;;;1.50;;
32407;SDS011;18869;55.970;37.502;2023-07-20T04:08:43;1.70;;;1.57;;
32407;SDS011;18869;55.970;37.502;2023-07-20T04:11:13;3.43;;;1.43;;
32407;SDS011;18869;55.970;37.502;2023-07-20T04:13:40;2.53;;;1.83;;
32407;SDS011;18869;55.970;37.502;2023-07-20T04:16:07;2.73;;;1.30;;
32407;SDS011;18869;55.970;37.502;2023-07-20T04:18:34;2.73;;;1.50;;
32407;SDS011;18869;55.970;37.502;2023-07-20T04:21:01;1.73;;;1.37;;
32407;SDS011;18869;55.970;37.502;2023-07-20T04:23:28;1.70;;;1.60;;
32407;SDS011;18869;55.970;37.502;2023-07-20T04:25:57;1.77;;;1.30;;
32407;SDS011;18869;55.970;37.502;2023-07-20T04:28:23;1.90;;;1.37;;
32407;SDS011;18869;55.970;37.502;2023-07-20T04:30:50;2.40;;;1.30;;
32407;SDS011;18869;55.970;37.502;2023-07-20T04:33:18;2.13;;;1.43;;
32407;SDS011;18869;55.970;37.502;2023-07-20T04:35:47;1.37;;;1.00;;
32407;SDS011;18869;55.970;37.502;2023-07-20T04:38:16;2.47;;;1.40;;
32407;SDS011;18869;55.970;37.502;2023-07-20T04:40:44;1.50;;;1.40;;
32407;SDS011;18869;55.970;37.502;2023-07-20T04:43:12;2.17;;;1.33;;
32407;SDS011;18869;55.970;37.502;2023-07-20T04:45:40;4.17;;;1.40;;
32407;SDS011;18869;55.970;37.502;2023-07-20T04:48:09;4.27;;;2.47;;
32407;SDS011;18869;55.970;37.502;2023-07-20T04:50:36;3.50;;;1.30;;
32407;SDS011;18869;55.970;37.502;2023-07-20T04:53:03;3.10;;;1.60;;
32407;SDS011;18869;55.970;37.502;2023-07-20T04:55:31;2.50;;;1.27;;
32407;SDS011;18869;55.970;37.502;2023-07-20T04:58:00;2.17;;;1.30;;
32407;SDS011;18869;55.970;37.502;2023-07-20T05:00:28;2.97;;;1.50;;
32407;SDS011;18869;55.970;37.502;2023-07-20T05:02:55;3.80;;;1.53;;
32407;SDS011;18869;55.970;37.502;2023-07-20T05:05:23;1.97;;;1.50;;
32407;SDS011;18869;55.970;37.502;2023-07-20T05:07:50;6.43;;;1.40;;
32407;SDS011;18869;55.970;37.502;2023-07-20T05:10:18;3.40;;;1.13;;
32407;SDS011;18869;55.970;37.502;2023-07-20T05:12:45;3.17;;;1.10;;
32407;SDS011;18869;55.970;37.502;2023-07-20T05:15:12;1.30;;;1.20;;
32407;SDS011;18869;55.970;37.502;2023-07-20T05:17:40;3.67;;;1.00;;
32407;SDS011;18869;55.970;37.502;2023-07-20T05:20:07;1.07;;;0.97;;
32407;SDS011;18869;55.970;37.502;2023-07-20T05:22:36;5.13;;;1.37;;
32407;SDS011;18869;55.970;37.502;2023-07-20T05:25:07;1.63;;;1.53;;
32407;SDS011;18869;55.970;37.502;2023-07-20T05:27:34;3.77;;;1.40;;
32407;SDS011;18869;55.970;37.502;2023-07-20T05:30:02;3.10;;;1.20;;
32407;SDS011;18869;55.970;37.502;2023-07-20T05:32:33;5.50;;;1.13;;
32407;SDS011;18869;55.970;37.502;2023-07-20T05:35:01;1.33;;;1.20;;
32407;SDS011;18869;55.970;37.502;2023-07-20T05:37:31;1.23;;;1.13;;
32407;SDS011;18869;55.970;37.502;2023-07-20T05:39:59;2.17;;;1.50;;
32407;SDS011;18869;55.970;37.502;2023-07-20T05:42:26;2.53;;;1.10;;
32407;SDS011;18869;55.970;37.502;2023-07-20T05:44:53;3.23;;;1.50;;
32407;SDS011;18869;55.970;37.502;2023-07-20T05:47:21;2.00;;;1.23;;
32407;SDS011;18869;55.970;37.502;2023-07-20T05:49:48;2.83;;;1.00;;
32407;SDS011;18869;55.970;37.502;2023-07-20T05:52:16;1.93;;;1.13;;
32407;SDS011;18869;55.970;37.502;2023-07-20T05:54:43;2.50;;;1.20;;
32407;SDS011;18869;55.970;37.502;2023-07-20T05:57:10;1.13;;;0.80;;
32407;SDS011;18869;55.970;37.502;2023-07-20T05:59:37;3.10;;;1.20;;
32407;SDS011;18869;55.970;37.502;2023-07-20T06:02:06;2.13;;;0.93;;
32407;SDS011;18869;55.970;37.502;2023-07-20T06:04:34;3.43;;;1.10;;
32407;SDS011;18869;55.970;37.502;2023-07-20T06:07:00;2.43;;;1.30;;
32407;SDS011;18869;55.970;37.502;2023-07-20T06:09:28;2.47;;;0.90;;
32407;SDS011;18869;55.970;37.502;2023-07-20T06:11:55;2.17;;;0.77;;
32407;SDS011;18869;55.970;37.502;2023-07-20T06:14:22;1.63;;;0.80;;
32407;SDS011;18869;55.970;37.502;2023-07-20T06:16:49;1.53;;;0.80;;
32407;SDS011;18869;55.970;37.502;2023-07-20T06:19:16;3.00;;;0.70;;
32407;SDS011;18869;55.970;37.502;2023-07-20T06:21:43;4.73;;;0.80;;
32407;SDS011;18869;55.970;37.502;2023-07-20T06:24:11;1.73;;;0.68;;
32407;SDS011;18869;55.970;37.502;2023-07-20T06:26:39;1.52;;;0.68;;
32407;SDS011;18869;55.970;37.502;2023-07-20T06:29:06;2.05;;;0.50;;
32407;SDS011;18869;55.970;37.502;2023-07-20T06:31:34;0.80;;;0.50;;
32407;SDS011;18869;55.970;37.502;2023-07-20T06:34:03;1.67;;;0.60;;
32407;SDS011;18869;55.970;37.502;2023-07-20T06:36:30;0.95;;;0.55;;
32407;SDS011;18869;55.970;37.502;2023-07-20T06:38:57;3.60;;;0.50;;
32407;SDS011;18869;55.970;37.502;2023-07-20T06:41:24;1.10;;;0.65;;
32407;SDS011;18869;55.970;37.502;2023-07-20T06:43:52;1.08;;;0.57;;
32407;SDS011;18869;55.970;37.502;2023-07-20T06:46:24;1.23;;;0.60;;
32407;SDS011;18869;55.970;37.502;2023-07-20T06:48:51;0.57;;;0.50;;
32407;SDS011;18869;55.970;37.502;2023-07-20T06:51:19;4.12;;;0.77;;
32407;SDS011;18869;55.970;37.502;2023-07-20T06:53:47;2.50;;;0.50;;
32407;SDS011;18869;55.970;37.502;2023-07-20T06:56:14;2.17;;;0.80;;
32407;SDS011;18869;55.970;37.502;2023-07-20T06:58:41;1.35;;;0.55;;
32407;SDS011;18869;55.970;37.502;2023-07-20T07:01:09;2.17;;;0.73;;
32407;SDS011;18869;55.970;37.502;2023-07-20T07:03:36;1.00;;;0.60;;
32407;SDS011;18869;55.970;37.502;2023-07-20T07:06:03;1.52;;;0.40;;
32407;SDS011;18869;55.970;37.502;2023-07-20T07:08:30;0.82;;;0.40;;
32407;SDS011;18869;55.970;37.502;2023-07-20T07:10:57;1.85;;;0.52;;
32407;SDS011;18869;55.970;37.502;2023-07-20T07:13:24;8.40;;;0.70;;
32407;SDS011;18869;55.970;37.502;2023-07-20T07:15:51;1.70;;;0.50;;
32407;SDS011;18869;55.970;37.502;2023-07-20T07:18:19;1.42;;;0.40;;
32407;SDS011;18869;55.970;37.502;2023-07-20T07:20:52;0.73;;;0.47;;
32407;SDS011;18869;55.970;37.502;2023-07-20T07:23:20;1.50;;;0.40;;
32407;SDS011;18869;55.970;37.502;2023-07-20T07:25:47;1.42;;;0.60;;
32407;SDS011;18869;55.970;37.502;2023-07-20T07:28:14;0.40;;;0.30;;
32407;SDS011;18869;55.970;37.502;2023-07-20T07:30:41;0.32;;;0.30;;
32407;SDS011;18869;55.970;37.502;2023-07-20T07:33:10;0.52;;;0.43;;
32407;SDS011;18869;55.970;37.502;2023-07-20T07:35:38;2.62;;;0.50;;
32407;SDS011;18869;55.970;37.502;2023-07-20T07:38:06;0.80;;;0.50;;
32407;SDS011;18869;55.970;37.502;2023-07-20T07:40:33;0.52;;;0.35;;
32407;SDS011;18869;55.970;37.502;2023-07-20T07:43:00;1.15;;;0.50;;
32407;SDS011;18869;55.970;37.502;2023-07-20T07:45:28;0.80;;;0.52;;
32407;SDS011;18869;55.970;37.502;2023-07-20T07:47:55;0.75;;;0.50;;
32407;SDS011;18869;55.970;37.502;2023-07-20T07:50:22;0.68;;;0.50;;
32407;SDS011;18869;55.970;37.502;2023-07-20T07:52:50;1.85;;;0.30;;
32407;SDS011;18869;55.970;37.502;2023-07-20T07:55:17;1.20;;;0.43;;
32407;SDS011;18869;55.970;37.502;2023-07-20T07:57:45;2.37;;;0.45;;
32407;SDS011;18869;55.970;37.502;2023-07-20T08:00:13;1.05;;;0.60;;
32407;SDS011;18869;55.970;37.502;2023-07-20T08:02:45;1.42;;;0.45;;
32407;SDS011;18869;55.970;37.502;2023-07-20T08:05:14;0.40;;;0.40;;
32407;SDS011;18869;55.970;37.502;2023-07-20T08:07:41;2.67;;;1.00;;
32407;SDS011;18869;55.970;37.502;2023-07-20T08:10:09;0.80;;;0.70;;
32407;SDS011;18869;55.970;37.502;2023-07-20T08:12:36;0.52;;;0.52;;
32407;SDS011;18869;55.970;37.502;2023-07-20T08:15:04;0.60;;;0.52;;
32407;SDS011;18869;55.970;37.502;2023-07-20T08:17:33;3.12;;;0.50;;
32407;SDS011;18869;55.970;37.502;2023-07-20T08:20:00;3.95;;;0.62;;
32407;SDS011;18869;55.970;37.502;2023-07-20T08:22:31;0.93;;;0.50;;
32407;SDS011;18869;55.970;37.502;2023-07-20T08:24:57;1.70;;;0.40;;
32407;SDS011;18869;55.970;37.502;2023-07-20T08:27:26;1.45;;;0.43;;
32407;SDS011;18869;55.970;37.502;2023-07-20T08:29:52;2.33;;;0.40;;
32407;SDS011;18869;55.970;37.502;2023-07-20T08:32:19;1.37;;;0.65;;
32407;SDS011;18869;55.970;37.502;2023-07-20T08:34:47;1.70;;;1.35;;
32407;SDS011;18869;55.970;37.502;2023-07-20T08:37:14;1.52;;;0.85;;
32407;SDS011;18869;55.970;37.502;2023-07-20T08:39:41;1.75;;;0.68;;
32407;SDS011;18869;55.970;37.502;2023-07-20T08:42:09;1.05;;;0.60;;
32407;SDS011;18869;55.970;37.502;2023-07-20T08:44:37;2.22;;;1.00;;
32407;SDS011;18869;55.970;37.502;2023-07-20T08:47:04;1.00;;;0.60;;
32407;SDS011;18869;55.970;37.502;2023-07-20T08:49:33;1.40;;;0.85;;
32407;SDS011;18869;55.970;37.502;2023-07-20T08:52:00;0.80;;;0.73;;
32407;SDS011;18869;55.970;37.502;2023-07-20T08:54:28;1.65;;;0.82;;
32407;SDS011;18869;55.970;37.502;2023-07-20T08:56:58;0.60;;;0.50;;
32407;SDS011;18869;55.970;37.502;2023-07-20T08:59:28;2.90;;;0.77;;
32407;SDS011;18869;55.970;37.502;2023-07-20T09:01:56;2.72;;;0.80;;
32407;SDS011;18869;55.970;37.502;2023-07-20T09:04:26;3.25;;;0.80;;
32407;SDS011;18869;55.970;37.502;2023-07-20T09:06:53;2.75;;;0.93;;
32407;SDS011;18869;55.970;37.502;2023-07-20T09:09:20;7.03;;;1.10;;
32407;SDS011;18869;55.970;37.502;2023-07-20T09:11:47;6.28;;;0.90;;
32407;SDS011;18869;55.970;37.502;2023-07-20T09:14:15;4.90;;;1.10;;
32407;SDS011;18869;55.970;37.502;2023-07-20T09:16:46;4.40;;;0.98;;
32407;SDS011;18869;55.970;37.502;2023-07-20T09:19:15;4.85;;;1.15;;
32407;SDS011;18869;55.970;37.502;2023-07-20T09:21:46;2.10;;;1.00;;
32407;SDS011;18869;55.970;37.502;2023-07-20T09:24:13;2.22;;;1.85;;
32407;SDS011;18869;55.970;37.502;2023-07-20T09:26:41;2.65;;;1.27;;
32407;SDS011;18869;55.970;37.502;2023-07-20T09:29:08;1.30;;;0.90;;
32407;SDS011;18869;55.970;37.502;2023-07-20T09:31:36;1.98;;;0.82;;
32407;SDS011;18869;55.970;37.502;2023-07-20T09:34:04;1.50;;;0.90;;
32407;SDS011;18869;55.970;37.502;2023-07-20T09:36:33;1.67;;;0.85;;
32407;SDS011;18869;55.970;37.502;2023-07-20T09:39:02;3.15;;;1.00;;
32407;SDS011;18869;55.970;37.502;2023-07-20T09:41:30;1.67;;;0.65;;
32407;SDS011;18869;55.970;37.502;2023-07-20T09:43:58;3.08;;;0.80;;
32407;SDS011;18869;55.970;37.502;2023-07-20T09:46:40;1.33;;;1.00;;
32407;SDS011;18869;55.970;37.502;2023-07-20T09:49:08;1.85;;;1.17;;
32407;SDS011;18869;55.970;37.502;2023-07-20T09:51:36;2.90;;;1.15;;
32407;SDS011;18869;55.970;37.502;2023-07-20T09:54:04;1.65;;;1.12;;
32407;SDS011;18869;55.970;37.502;2023-07-20T09:56:33;1.75;;;0.90;;
32407;SDS011;18869;55.970;37.502;2023-07-20T09:59:00;2.65;;;1.05;;
32407;SDS011;18869;55.970;37.502;2023-07-20T10:01:27;2.37;;;1.00;;
32407;SDS011;18869;55.970;37.502;2023-07-20T10:03:58;7.23;;;1.37;;
32407;SDS011;18869;55.970;37.502;2023-07-20T10:06:28;3.37;;;1.10;;
32407;SDS011;18869;55.970;37.502;2023-07-20T10:08:57;1.33;;;1.07;;
32407;SDS011;18869;55.970;37.502;2023-07-20T10:11:27;4.83;;;1.20;;
32407;SDS011;18869;55.970;37.502;2023-07-20T10:13:56;2.20;;;1.40;;
32407;SDS011;18869;55.970;37.502;2023-07-20T10:16:27;2.23;;;1.23;;
32407;SDS011;18869;55.970;37.502;2023-07-20T10:18:59;3.63;;;0.90;;
32407;SDS011;18869;55.970;37.502;2023-07-20T10:21:30;3.07;;;1.27;;
32407;SDS011;18869;55.970;37.502;2023-07-20T10:23:58;3.20;;;1.20;;
32407;SDS011;18869;55.970;37.502;2023-07-20T10:26:26;2.93;;;1.23;;
32407;SDS011;18869;55.970;37.502;2023-07-20T10:28:53;3.10;;;1.10;;
32407;SDS011;18869;55.970;37.502;2023-07-20T10:31:20;1.63;;;1.00;;
32407;SDS011;18869;55.970;37.502;2023-07-20T10:33:48;1.40;;;0.93;;
32407;SDS011;18869;55.970;37.502;2023-07-20T10:36:21;1.17;;;0.77;;
32407;SDS011;18869;55.970;37.502;2023-07-20T10:38:52;1.07;;;0.77;;
32407;SDS011;18869;55.970;37.502;2023-07-20T10:41:22;1.40;;;1.20;;
32407;SDS011;18869;55.970;37.502;2023-07-20T10:43:58;4.23;;;1.20;;
32407;SDS011;18869;55.970;37.502;2023-07-20T10:46:35;4.03;;;1.33;;
32407;SDS011;18869;55.970;37.502;2023-07-20T10:49:09;2.13;;;1.13;;
32407;SDS011;18869;55.970;37.502;2023-07-20T10:51:40;3.20;;;1.03;;
32407;SDS011;18869;55.970;37.502;2023-07-20T10:54:08;1.30;;;1.00;;
32407;SDS011;18869;55.970;37.502;2023-07-20T10:56:36;2.00;;;1.13;;
32407;SDS011;18869;55.970;37.502;2023-07-20T10:59:04;1.83;;;1.20;;
32407;SDS011;18869;55.970;37.502;2023-07-20T11:01:45;3.07;;;1.30;;
32407;SDS011;18869;55.970;37.502;2023-07-20T11:04:13;1.60;;;1.10;;
32407;SDS011;18869;55.970;37.502;2023-07-20T11:06:42;2.70;;;1.07;;
32407;SDS011;18869;55.970;37.502;2023-07-20T11:09:10;5.43;;;1.10;;
32407;SDS011;18869;55.970;37.502;2023-07-20T11:11:40;2.10;;;1.27;;
32407;SDS011;18869;55.970;37.502;2023-07-20T11:14:08;3.63;;;1.17;;
32407;SDS011;18869;55.970;37.502;2023-07-20T11:16:40;3.10;;;1.33;;
32407;SDS011;18869;55.970;37.502;2023-07-20T11:19:16;1.87;;;1.10;;
32407;SDS011;18869;55.970;37.502;2023-07-20T11:21:45;4.40;;;1.13;;
32407;SDS011;18869;55.970;37.502;2023-07-20T11:24:13;3.13;;;1.10;;
32407;SDS011;18869;55.970;37.502;2023-07-20T11:26:41;2.20;;;1.20;;
32407;SDS011;18869;55.970;37.502;2023-07-20T11:29:10;2.90;;;1.27;;
32407;SDS011;18869;55.970;37.502;2023-07-20T11:31:38;1.30;;;0.90;;
32407;SDS011;18869;55.970;37.502;2023-07-20T11:34:05;6.00;;;1.40;;
32407;SDS011;18869;55.970;37.502;2023-07-20T11:36:33;3.50;;;1.20;;
32407;SDS011;18869;55.970;37.502;2023-07-20T11:39:00;1.10;;;0.90;;
32407;SDS011;18869;55.970;37.502;2023-07-20T11:41:31;5.30;;;1.70;;
32407;SDS011;18869;55.970;37.502;2023-07-20T11:44:00;5.07;;;1.27;;
32407;SDS011;18869;55.970;37.502;2023-07-20T11:46:28;3.17;;;1.73;;
32407;SDS011;18869;55.970;37.502;2023-07-20T11:48:56;2.27;;;1.27;;
32407;SDS011;18869;55.970;37.502;2023-07-20T11:51:25;3.40;;;1.40;;
32407;SDS011;18869;55.970;37.502;2023-07-20T11:53:53;3.37;;;1.20;;
32407;SDS011;18869;55.970;37.502;2023-07-20T11:56:20;4.30;;;1.83;;
32407;SDS011;18869;55.970;37.502;2023-07-20T11:58:49;2.27;;;1.30;;
32407;SDS011;18869;55.970;37.502;2023-07-20T12:01:16;5.43;;;1.50;;
32407;SDS011;18869;55.970;37.502;2023-07-20T12:03:47;1.70;;;1.43;;
32407;SDS011;18869;55.970;37.502;2023-07-20T12:06:15;1.93;;;1.10;;
32407;SDS011;18869;55.970;37.502;2023-07-20T12:08:43;2.33;;;1.17;;
32407;SDS011;18869;55.970;37.502;2023-07-20T12:11:11;3.13;;;1.40;;
32407;SDS011;18869;55.970;37.502;2023-07-20T12:13:39;2.40;;;1.17;;
32407;SDS011;18869;55.970;37.502;2023-07-20T12:16:08;2.37;;;1.60;;
32407;SDS011;18869;55.970;37.502;2023-07-20T12:18:38;3.20;;;1.63;;
32407;SDS011;18869;55.970;37.502;2023-07-20T12:21:05;3.00;;;1.63;;
32407;SDS011;18869;55.970;37.502;2023-07-20T12:23:36;3.27;;;1.50;;
32407;SDS011;18869;55.970;37.502;2023-07-20T12:26:08;3.70;;;1.50;;
32407;SDS011;18869;55.970;37.502;2023-07-20T12:28:39;1.37;;;1.17;;
32407;SDS011;18869;55.970;37.502;2023-07-20T12:31:07;2.87;;;1.30;;
32407;SDS011;18869;55.970;37.502;2023-07-20T12:33:35;1.97;;;1.20;;
32407;SDS011;18869;55.970;37.502;2023-07-20T12:36:04;1.27;;;1.10;;
32407;SDS011;18869;55.970;37.502;2023-07-20T12:38:32;1.40;;;0.80;;
32407;SDS011;18869;55.970;37.502;2023-07-20T12:41:00;1.23;;;0.93;;
32407;SDS011;18869;55.970;37.502;2023-07-20T12:43:27;2.43;;;0.93;;
32407;SDS011;18869;55.970;37.502;2023-07-20T12:45:55;1.77;;;1.10;;
32407;SDS011;18869;55.970;37.502;2023-07-20T12:48:22;1.23;;;1.10;;
32407;SDS011;18869;55.970;37.502;2023-07-20T12:50:50;1.77;;;1.10;;
32407;SDS011;18869;55.970;37.502;2023-07-20T12:53:18;2.80;;;0.90;;
32407;SDS011;18869;55.970;37.502;2023-07-20T12:55:46;0.83;;;0.80;;
32407;SDS011;18869;55.970;37.502;2023-07-20T12:58:13;2.03;;;1.10;;
32407;SDS011;18869;55.970;37.502;2023-07-20T13:00:40;1.77;;;1.07;;
32407;SDS011;18869;55.970;37.502;2023-07-20T13:03:07;2.37;;;1.10;;
32407;SDS011;18869;55.970;37.502;2023-07-20T13:05:34;2.13;;;0.90;;
32407;SDS011;18869;55.970;37.502;2023-07-20T13:08:01;2.43;;;1.07;;
32407;SDS011;18869;55.970;37.502;2023-07-20T13:10:29;1.73;;;0.93;;
32407;SDS011;18869;55.970;37.502;2023-07-20T13:12:56;1.17;;;0.83;;
32407;SDS011;18869;55.970;37.502;2023-07-20T13:15:24;2.17;;;1.20;;
32407;SDS011;18869;55.970;37.502;2023-07-20T13:17:56;1.37;;;0.93;;
32407;SDS011;18869;55.970;37.502;2023-07-20T13:20:25;2.70;;;1.30;;
32407;SDS011;18869;55.970;37.502;2023-07-20T13:22:52;1.50;;;1.37;;
32407;SDS011;18869;55.970;37.502;2023-07-20T13:25:20;1.87;;;1.13;;
32407;SDS011;18869;55.970;37.502;2023-07-20T13:27:48;0.93;;;0.90;;
32407;SDS011;18869;55.970;37.502;2023-07-20T13:30:15;1.20;;;1.00;;
32407;SDS011;18869;55.970;37.502;2023-07-20T13:32:42;1.17;;;0.93;;
32407;SDS011;18869;55.970;37.502;2023-07-20T13:35:12;1.57;;;1.00;;
32407;SDS011;18869;55.970;37.502;2023-07-20T13:37:39;1.63;;;1.00;;
32407;SDS011;18869;55.970;37.502;2023-07-20T13:40:07;2.50;;;1.37;;
32407;SDS011;18869;55.970;37.502;2023-07-20T13:42:39;0.83;;;0.83;;
32407;SDS011;18869;55.970;37.502;2023-07-20T13:45:07;1.53;;;1.13;;
32407;SDS011;18869;55.970;37.502;2023-07-20T13:47:36;1.17;;;1.07;;
32407;SDS011;18869;55.970;37.502;2023-07-20T13:50:03;2.30;;;1.30;;
32407;SDS011;18869;55.970;37.502;2023-07-20T13:52:32;1.60;;;1.10;;
32407;SDS011;18869;55.970;37.502;2023-07-20T13:55:00;1.40;;;0.93;;
32407;SDS011;18869;55.970;37.502;2023-07-20T13:57:30;1.13;;;1.00;;
32407;SDS011;18869;55.970;37.502;2023-07-20T13:59:57;1.97;;;1.10;;
32407;SDS011;18869;55.970;37.502;2023-07-20T14:02:27;1.63;;;0.90;;
32407;SDS011;18869;55.970;37.502;2023-07-20T14:04:54;1.30;;;1.00;;
32407;SDS011;18869;55.970;37.502;2023-07-20T14:07:22;1.57;;;1.30;;
32407;SDS011;18869;55.970;37.502;2023-07-20T14:09:49;2.43;;;1.17;;
32407;SDS011;18869;55.970;37.502;2023-07-20T14:12:16;1.47;;;0.97;;
32407;SDS011;18869;55.970;37.502;2023-07-20T14:14:43;1.43;;;1.30;;
32407;SDS011;18869;55.970;37.502;2023-07-20T14:17:10;1.93;;;1.20;;
32407;SDS011;18869;55.970;37.502;2023-07-20T14:19:38;2.00;;;1.10;;
32407;SDS011;18869;55.970;37.502;2023-07-20T14:22:05;2.60;;;1.13;;
32407;SDS011;18869;55.970;37.502;2023-07-20T14:24:32;1.80;;;1.10;;
32407;SDS011;18869;55.970;37.502;2023-07-20T14:27:00;2.17;;;0.90;;
32407;SDS011;18869;55.970;37.502;2023-07-20T14:29:27;2.03;;;1.17;;
32407;SDS011;18869;55.970;37.502;2023-07-20T14:31:57;2.57;;;1.40;;
32407;SDS011;18869;55.970;37.502;2023-07-20T14:34:25;2.13;;;1.30;;
32407;SDS011;18869;55.970;37.502;2023-07-20T14:36:52;1.60;;;1.40;;
32407;SDS011;18869;55.970;37.502;2023-07-20T14:39:20;2.27;;;1.10;;